createdAt,value
2023-01-25T04:59:00.441Z,702.00
2023-01-25T05:00:00.432Z,704.00
2023-01-25T05:01:00.439Z,707.00
2023-01-25T05:03:00.399Z,705.00
2023-01-25T05:04:00.392Z,707.00
2023-01-25T05:05:00.396Z,708.00
2023-01-25T05:06:00.380Z,706.00
2023-01-25T05:07:00.366Z,705.00
2023-01-25T05:08:00.361Z,703.00
2023-01-25T05:09:00.347Z,704.00
2023-01-25T05:10:00.347Z,704.00
2023-01-25T05:11:00.356Z,701.00
2023-01-25T05:12:00.353Z,699.00
2023-01-25T05:13:00.351Z,699.00
2023-01-25T05:35:01.028Z,704.00
2023-01-25T05:36:00.347Z,703.00
2023-01-25T05:37:00.317Z,700.00
2023-01-25T05:38:00.376Z,701.00
2023-01-25T05:39:00.351Z,701.00
2023-01-25T05:40:00.321Z,700.00
2023-01-25T05:41:00.307Z,698.00
2023-01-25T05:42:00.328Z,698.00
2023-01-25T05:43:00.326Z,700.00
2023-01-25T05:44:00.318Z,703.00
2023-01-25T05:45:00.323Z,702.00
2023-01-25T05:46:00.410Z,700.00
2023-01-25T05:47:00.301Z,699.00
2023-01-25T05:48:00.325Z,698.00
2023-01-25T05:49:00.321Z,698.00
2023-01-25T05:50:00.335Z,697.00
2023-01-25T05:51:00.310Z,694.00
2023-01-25T05:52:00.332Z,694.00
2023-01-25T05:53:00.317Z,697.00
2023-01-25T05:54:00.308Z,694.00
2023-01-25T05:55:00.313Z,694.00
2023-01-25T05:56:00.301Z,695.00
2023-01-25T05:57:00.291Z,697.00
2023-01-25T05:58:00.283Z,698.00
2023-01-25T08:04:58.076Z,1056.00
2023-01-25T08:11:57.905Z,1092.00
2023-01-25T08:21:57.669Z,1357.00
2023-01-25T08:27:57.515Z,1267.00
2023-01-25T08:31:57.425Z,1266.00
2023-01-25T08:46:57.433Z,1190.00
2023-01-25T08:47:57.388Z,1189.00
2023-01-25T08:48:58.004Z,1184.00
2023-01-25T08:50:57.522Z,1079.00
2023-01-25T08:54:57.495Z,1154.00
2023-01-25T08:55:57.980Z,1159.00
2023-01-25T08:56:57.983Z,1163.00
2023-01-25T08:57:58.448Z,1164.00
2023-01-25T08:58:57.449Z,1171.00
2023-01-25T08:59:57.447Z,1173.00
2023-01-25T09:00:57.429Z,1175.00
2023-01-25T09:01:57.433Z,1173.00
2023-01-25T09:02:57.489Z,1172.00
2023-01-25T09:03:58.461Z,1171.00
2023-01-25T09:04:57.405Z,1170.00
2023-01-25T09:05:57.358Z,1168.00
2023-01-25T09:06:57.450Z,1162.00
2023-01-25T09:07:57.340Z,1161.00
2023-01-25T09:08:57.307Z,1161.00
2023-01-25T09:10:57.264Z,1194.00
2023-01-25T09:11:59.017Z,1208.00
2023-01-25T09:12:57.192Z,1217.00
2023-01-25T09:13:57.409Z,1304.00
2023-01-25T09:14:57.152Z,1637.00
2023-01-25T09:15:57.127Z,1656.00
2023-01-25T09:16:57.077Z,1600.00
2023-01-25T09:17:57.045Z,1520.00
2023-01-25T09:18:57.059Z,1562.00
2023-01-25T09:19:57.031Z,1568.00
2023-01-25T09:20:57.099Z,1500.00
2023-01-25T09:21:56.948Z,1253.00
2023-01-25T09:24:05.998Z,1333.00
2023-01-25T09:24:57.913Z,1250.00
2023-01-25T09:25:56.854Z,1184.00
2023-01-25T09:27:00.091Z,1262.00
2023-01-25T09:27:56.847Z,1346.00
2023-01-25T09:28:56.822Z,1397.00
2023-01-25T09:30:16.641Z,1076.00
2023-01-25T09:31:18.497Z,1099.00
2023-01-25T09:31:57.830Z,1071.00
2023-01-25T09:32:56.815Z,994.00
2023-01-25T09:33:56.675Z,1047.00
2023-01-25T09:34:56.645Z,1068.00
2023-01-25T09:35:56.629Z,1015.00
2023-01-25T09:36:56.603Z,1002.00
2023-01-25T09:37:56.571Z,1008.00
2023-01-25T09:38:56.595Z,997.00
2023-01-25T09:39:56.556Z,1191.00
2023-01-25T09:40:56.508Z,1221.00
2023-01-25T09:41:58.451Z,1217.00
2023-01-25T09:42:56.452Z,1208.00
2023-01-25T09:44:00.187Z,1021.00
2023-01-25T09:44:57.404Z,972.00
2023-01-25T09:45:56.383Z,952.00
2023-01-25T09:46:56.365Z,946.00
2023-01-25T09:47:56.372Z,959.00
2023-01-25T09:49:06.738Z,1031.00
2023-01-25T09:49:57.281Z,930.00
2023-01-25T09:50:56.247Z,927.00
2023-01-25T09:51:56.246Z,930.00
2023-01-25T09:52:56.294Z,842.00
2023-01-25T09:53:56.184Z,879.00
2023-01-25T09:54:56.170Z,873.00
2023-01-25T09:55:56.292Z,840.00
2023-01-25T09:56:56.125Z,822.00
2023-01-25T09:57:56.093Z,854.00
2023-01-25T09:58:56.093Z,851.00
2023-01-25T09:59:58.603Z,846.00
2023-01-25T10:00:56.021Z,844.00
2023-01-25T10:01:58.036Z,843.00
2023-01-25T10:02:55.994Z,829.00
2023-01-25T10:03:55.981Z,864.00
2023-01-25T10:04:55.938Z,826.00
2023-01-25T10:05:55.900Z,814.00
2023-01-25T10:07:00.840Z,819.00
2023-01-25T10:07:56.858Z,837.00
2023-01-25T10:08:55.837Z,818.00
2023-01-25T10:09:55.825Z,825.00
2023-01-25T10:10:55.783Z,904.00
2023-01-25T10:11:55.791Z,916.00
2023-01-25T10:12:56.636Z,975.00
2023-01-25T10:13:55.711Z,993.00
2023-01-25T10:14:55.718Z,996.00
2023-01-25T10:15:55.719Z,1013.00
2023-01-25T10:16:55.662Z,1070.00
2023-01-25T10:17:56.554Z,1141.00
2023-01-25T10:18:55.697Z,1141.00
2023-01-25T10:19:55.601Z,1169.00
2023-01-25T10:20:55.806Z,1243.00
2023-01-25T10:21:56.545Z,1250.00
2023-01-25T10:22:55.550Z,1226.00
2023-01-25T10:23:56.607Z,1213.00
2023-01-25T10:24:55.520Z,1061.00
2023-01-25T10:25:55.513Z,985.00
2023-01-25T10:26:55.498Z,994.00
2023-01-25T10:27:55.454Z,1000.00
2023-01-25T10:28:55.457Z,923.00
2023-01-25T10:29:55.446Z,892.00
2023-01-25T10:30:55.595Z,867.00
2023-01-25T10:31:55.610Z,816.00
2023-01-25T10:32:56.380Z,809.00
2023-01-25T10:33:55.635Z,812.00
2023-01-25T10:34:57.791Z,827.00
2023-01-25T10:35:55.724Z,827.00
2023-01-25T10:36:55.747Z,846.00
2023-01-25T10:37:57.496Z,873.00
2023-01-25T10:38:55.799Z,893.00
2023-01-25T10:39:55.819Z,902.00
2023-01-25T10:40:55.835Z,923.00
2023-01-25T10:41:55.880Z,932.00
2023-01-25T10:42:55.885Z,936.00
2023-01-25T10:43:55.864Z,935.00
2023-01-25T10:44:55.874Z,935.00
2023-01-25T10:45:57.481Z,937.00
2023-01-25T10:46:55.889Z,939.00
2023-01-25T10:47:55.891Z,939.00
2023-01-25T10:48:55.926Z,943.00
2023-01-25T10:49:55.871Z,947.00
2023-01-25T10:50:55.905Z,947.00
2023-01-25T10:51:55.876Z,947.00
2023-01-25T10:52:55.849Z,952.00
2023-01-25T10:53:55.835Z,956.00
2023-01-25T10:54:55.842Z,961.00
2023-01-25T10:56:55.832Z,967.00
2023-01-25T10:57:55.775Z,969.00
2023-01-25T10:58:55.726Z,973.00
2023-01-25T10:59:55.713Z,976.00
2023-01-25T11:00:55.689Z,975.00
2023-01-25T11:01:55.748Z,974.00
2023-01-25T11:02:55.677Z,974.00
2023-01-25T11:03:55.603Z,976.00
2023-01-25T11:04:55.584Z,978.00
2023-01-25T11:05:56.469Z,976.00
2023-01-25T11:06:55.523Z,976.00
2023-01-25T11:24:15.199Z,1108.00
2023-01-25T11:37:14.937Z,1060.00
2023-01-25T11:38:14.917Z,1056.00
2023-01-25T11:39:14.943Z,1053.00
2023-01-25T11:40:14.999Z,1053.00
2023-01-25T11:41:15.033Z,1051.00
2023-01-25T11:42:15.068Z,1053.00
2023-01-25T11:43:15.124Z,1054.00
2023-01-25T11:44:15.171Z,1054.00
2023-01-25T11:45:15.200Z,1055.00
2023-01-25T11:46:15.260Z,1055.00
2023-01-25T11:47:15.293Z,1051.00
2023-01-25T11:48:15.327Z,1052.00
2023-01-25T11:49:16.131Z,1057.00
2023-01-25T11:50:15.407Z,1073.00
2023-01-25T11:51:15.452Z,1108.00
2023-01-25T11:52:15.488Z,1103.00
2023-01-25T11:53:15.533Z,1146.00
2023-01-25T11:54:15.576Z,1177.00
2023-01-25T11:55:15.617Z,1171.00
2023-01-25T11:56:15.674Z,1149.00
2023-01-25T11:57:15.704Z,1147.00
2023-01-25T11:58:15.748Z,1146.00
2023-01-25T11:59:15.815Z,1139.00
2023-01-25T12:00:15.849Z,1124.00
2023-01-25T12:01:15.888Z,1110.00
2023-01-25T12:02:15.918Z,1115.00
2023-01-25T12:03:16.948Z,1120.00
2023-01-25T12:04:16.032Z,1127.00
2023-01-25T12:05:21.659Z,1222.00
2023-01-25T12:06:17.031Z,1227.00
2023-01-25T12:07:16.006Z,1222.00
2023-01-25T12:08:16.049Z,1217.00
2023-01-25T12:09:16.625Z,1168.00
2023-01-25T12:10:15.950Z,1163.00
2023-01-25T12:11:16.150Z,1160.00
2023-01-25T12:12:15.904Z,1150.00
2023-01-25T12:13:15.888Z,1154.00
2023-01-25T12:14:15.872Z,1156.00
2023-01-25T12:15:15.904Z,1164.00
2023-01-25T12:16:15.971Z,1167.00
2023-01-25T12:17:15.961Z,1168.00
2023-01-25T12:18:16.013Z,1174.00
2023-01-25T12:19:16.044Z,1183.00
2023-01-25T12:20:16.101Z,1203.00
2023-01-25T12:21:23.068Z,1210.00
2023-01-25T12:22:17.101Z,1206.00
2023-01-25T12:23:16.081Z,1201.00
2023-01-25T12:24:16.090Z,1184.00
2023-01-25T12:25:16.050Z,1173.00
2023-01-25T12:26:16.047Z,1171.00
2023-01-25T12:27:16.015Z,1171.00
2023-01-25T12:28:15.986Z,1172.00
2023-01-25T12:29:15.969Z,1165.00
2023-01-25T12:30:15.965Z,1165.00
2023-01-25T12:31:16.005Z,1164.00
2023-01-25T12:32:15.968Z,1157.00
2023-01-25T12:33:16.064Z,1159.00
2023-01-25T12:34:16.046Z,1155.00
2023-01-25T12:35:16.074Z,1151.00
2023-01-25T12:36:16.107Z,1149.00
2023-01-25T12:37:16.162Z,1147.00
2023-01-25T12:38:16.190Z,1144.00
2023-01-25T12:39:18.096Z,1141.00
2023-01-25T12:40:16.286Z,1139.00
2023-01-25T12:41:16.329Z,1135.00
2023-01-25T12:42:16.367Z,1135.00
2023-01-25T12:43:16.417Z,1143.00
2023-01-25T12:44:16.450Z,1150.00
2023-01-25T12:45:16.499Z,1156.00
2023-01-25T12:46:16.539Z,1149.00
2023-01-25T12:47:17.113Z,1148.00
2023-01-25T12:48:16.624Z,1150.00
2023-01-25T12:49:16.671Z,1146.00
2023-01-25T12:50:16.721Z,1169.00
2023-01-25T12:51:16.752Z,1171.00
2023-01-25T12:52:16.781Z,1167.00
2023-01-25T12:53:16.823Z,1167.00
2023-01-25T12:54:16.861Z,1164.00
2023-01-25T12:55:16.915Z,1164.00
2023-01-25T12:56:16.958Z,1205.00
2023-01-25T12:57:16.992Z,1224.00
2023-01-25T12:58:18.275Z,1248.00
2023-01-25T12:59:17.065Z,1241.00
2023-01-25T13:00:17.107Z,1240.00
2023-01-25T13:01:17.206Z,1263.00
2023-01-25T13:02:17.230Z,1261.00
2023-01-25T13:03:17.277Z,1259.00
2023-01-25T13:04:17.267Z,1321.00
2023-01-25T13:05:17.360Z,1540.00
2023-01-25T13:06:17.342Z,1417.00
2023-01-25T13:07:17.396Z,1546.00
2023-01-25T13:08:30.068Z,1653.00
2023-01-25T13:09:18.406Z,1569.00
2023-01-25T13:10:17.369Z,1586.00
2023-01-25T13:11:17.347Z,1592.00
2023-01-25T13:12:17.343Z,1593.00
2023-01-25T13:13:17.329Z,1602.00
2023-01-25T13:14:17.297Z,1721.00
2023-01-25T13:15:17.282Z,1644.00
2023-01-25T13:16:18.141Z,1637.00
2023-01-25T13:17:17.238Z,1572.00
2023-01-25T13:18:17.221Z,1526.00
2023-01-25T13:19:17.196Z,1501.00
2023-01-25T13:20:17.244Z,1516.00
2023-01-25T13:21:18.101Z,1432.00
2023-01-25T13:22:17.318Z,1428.00
2023-01-25T13:23:17.369Z,1436.00
2023-01-25T13:24:17.455Z,1423.00
2023-01-25T13:25:17.454Z,1406.00
2023-01-25T13:26:17.487Z,1397.00
2023-01-25T13:27:17.528Z,1362.00
2023-01-25T13:28:17.563Z,1357.00
2023-01-25T13:29:17.608Z,1338.00
2023-01-25T13:30:17.686Z,1316.00
2023-01-25T13:31:18.172Z,1314.00
2023-01-25T13:32:17.775Z,1305.00
2023-01-25T13:33:17.791Z,1302.00
2023-01-25T13:34:17.824Z,1300.00
2023-01-25T13:35:17.877Z,1293.00
2023-01-25T13:36:17.923Z,1290.00
2023-01-25T13:37:17.944Z,1281.00
2023-01-25T13:38:18.003Z,1270.00
2023-01-25T13:39:18.024Z,1262.00
2023-01-25T13:40:18.073Z,1255.00
2023-01-25T13:41:18.111Z,1242.00
2023-01-25T13:42:19.120Z,1233.00
2023-01-25T13:43:18.219Z,1228.00
2023-01-25T13:44:18.236Z,1230.00
2023-01-25T13:45:18.278Z,1233.00
2023-01-25T13:46:18.315Z,1231.00
2023-01-25T13:47:18.351Z,1230.00
2023-01-25T13:48:18.399Z,1230.00
2023-01-25T13:49:18.432Z,1233.00
2023-01-25T13:50:18.470Z,1237.00
2023-01-25T13:51:18.509Z,1235.00
2023-01-25T13:52:18.608Z,1231.00
2023-01-25T13:53:18.658Z,1230.00
2023-01-25T13:54:18.606Z,1231.00
2023-01-25T13:55:18.645Z,1226.00
2023-01-25T13:56:18.694Z,1221.00
2023-01-25T13:57:18.720Z,1224.00
2023-01-25T13:58:19.112Z,1231.00
2023-01-25T13:59:18.792Z,1235.00
2023-01-25T14:00:19.087Z,1239.00
2023-01-25T14:01:18.928Z,1243.00
2023-01-25T14:02:18.916Z,1240.00
2023-01-25T14:03:18.924Z,1238.00
2023-01-25T14:04:18.961Z,1236.00
2023-01-25T14:05:18.992Z,1239.00
2023-01-25T14:06:19.017Z,1250.00
2023-01-25T14:07:19.040Z,1252.00
2023-01-25T14:08:19.073Z,1252.00
2023-01-25T14:09:19.177Z,1248.00
2023-01-25T14:10:19.155Z,1243.00
2023-01-25T14:11:19.172Z,1239.00
2023-01-25T14:12:19.213Z,1233.00
2023-01-25T14:13:19.262Z,1229.00
2023-01-25T14:14:19.333Z,1218.00
2023-01-25T14:15:19.426Z,1216.00
2023-01-25T14:16:19.414Z,1214.00
2023-01-25T14:17:19.423Z,1213.00
2023-01-25T14:18:19.529Z,1215.00
2023-01-25T14:19:19.510Z,1210.00
2023-01-25T14:20:19.561Z,1210.00
2023-01-25T14:21:19.620Z,1209.00
2023-01-25T14:22:19.655Z,1204.00
2023-01-25T14:23:19.703Z,1202.00
2023-01-25T14:24:19.798Z,1198.00
2023-01-25T14:25:19.776Z,1197.00
2023-01-25T14:26:19.855Z,1190.00
2023-01-25T14:27:19.884Z,1188.00
2023-01-25T14:28:19.949Z,1185.00
2023-01-25T14:29:33.543Z,1183.00
2023-01-25T14:31:20.654Z,1180.00
2023-01-25T14:32:19.971Z,1177.00
2023-01-25T14:33:19.947Z,1172.00
2023-01-25T14:34:19.940Z,1168.00
2023-01-25T14:35:19.923Z,1165.00
2023-01-25T14:36:25.107Z,1157.00
2023-01-25T14:38:19.871Z,1161.00
2023-01-25T14:39:19.859Z,1163.00
2023-01-25T14:40:19.848Z,1164.00
2023-01-25T14:41:19.819Z,1166.00
2023-01-25T14:42:19.818Z,1166.00
2023-01-25T14:43:19.827Z,1158.00
2023-01-25T14:45:19.770Z,1155.00
2023-01-25T14:46:19.845Z,1150.00
2023-01-25T16:16:24.328Z,1037.00
2023-01-25T16:18:24.367Z,1033.00
2023-01-25T16:27:25.604Z,1016.00
2023-01-25T16:29:24.931Z,1005.00
2023-01-25T16:30:25.062Z,997.00
2023-01-25T16:31:32.732Z,979.00
2023-01-25T16:32:26.031Z,988.00
2023-01-25T16:33:24.993Z,996.00
2023-01-25T16:34:25.052Z,998.00
2023-01-25T16:35:24.972Z,998.00
2023-01-25T16:36:24.961Z,996.00
2023-01-25T16:37:24.943Z,992.00
2023-01-25T16:38:24.942Z,988.00
2023-01-25T16:39:24.980Z,988.00
2023-01-25T16:40:24.947Z,983.00
2023-01-25T16:41:25.006Z,980.00
2023-01-25T16:42:25.054Z,980.00
2023-01-25T16:43:27.001Z,979.00
2023-01-25T16:44:26.090Z,975.00
2023-01-25T16:45:25.084Z,978.00
2023-01-25T16:46:25.083Z,978.00
2023-01-25T16:47:26.919Z,972.00
2023-01-25T16:48:25.007Z,970.00
2023-01-25T16:49:25.003Z,971.00
2023-01-25T16:50:24.983Z,966.00
2023-01-25T16:51:25.074Z,962.00
2023-01-25T16:52:24.983Z,961.00
2023-01-25T16:53:24.980Z,959.00
2023-01-25T16:54:24.945Z,956.00
2023-01-25T16:55:24.944Z,958.00
2023-01-25T16:57:24.912Z,952.00
2023-01-25T16:58:24.903Z,955.00
2023-01-25T16:59:24.892Z,956.00
2023-01-25T17:30:24.894Z,944.00
2023-01-25T17:31:24.991Z,943.00
2023-01-25T17:32:25.005Z,938.00
2023-01-25T17:33:25.045Z,938.00
2023-01-25T17:34:25.100Z,938.00
2023-01-25T17:35:25.156Z,934.00
2023-01-25T17:36:25.218Z,934.00
2023-01-25T17:37:25.275Z,934.00
2023-01-25T17:38:25.321Z,934.00
2023-01-25T17:39:25.380Z,936.00
2023-01-25T17:40:25.448Z,935.00
2023-01-25T17:41:25.487Z,933.00
2023-01-25T17:42:25.567Z,933.00
2023-01-25T17:43:25.592Z,931.00
2023-01-25T17:44:25.663Z,927.00
2023-01-25T17:45:25.686Z,922.00
2023-01-25T17:46:25.825Z,917.00
2023-01-25T17:47:25.809Z,917.00
2023-01-25T17:48:25.875Z,916.00
2023-01-25T17:49:25.925Z,914.00
2023-01-25T17:50:25.989Z,917.00
2023-01-25T17:51:26.041Z,914.00
2023-01-25T17:52:26.109Z,914.00
2023-01-25T17:53:26.158Z,913.00
2023-01-25T17:54:26.215Z,915.00
2023-01-25T17:55:26.273Z,916.00
2023-01-25T17:56:26.322Z,920.00
2023-01-25T17:57:27.072Z,920.00
2023-01-25T17:58:26.419Z,919.00
2023-01-25T17:59:26.482Z,920.00
2023-01-25T18:00:26.544Z,918.00
2023-01-25T18:01:26.639Z,918.00
2023-01-25T18:02:26.675Z,917.00
2023-01-25T18:03:26.713Z,919.00
2023-01-25T18:04:26.766Z,919.00
2023-01-25T18:05:26.813Z,919.00
2023-01-25T18:06:26.869Z,920.00
2023-01-25T18:07:26.945Z,922.00
2023-01-25T18:08:26.984Z,921.00
2023-01-25T18:09:27.039Z,918.00
2023-01-25T18:10:27.085Z,918.00
2023-01-25T18:11:27.158Z,918.00
2023-01-25T18:12:27.198Z,918.00
2023-01-25T18:13:27.254Z,918.00
2023-01-25T18:14:27.305Z,919.00
2023-01-25T18:15:27.380Z,918.00
2023-01-25T18:17:27.473Z,910.00
2023-01-25T18:18:27.510Z,908.00
2023-01-25T18:19:27.584Z,912.00
2023-01-25T18:21:27.672Z,907.00
2023-01-25T18:22:27.719Z,908.00
2023-01-25T18:23:27.762Z,907.00
2023-01-25T18:24:27.855Z,906.00
2023-01-25T18:25:27.888Z,906.00
2023-01-25T18:26:27.926Z,908.00
2023-01-25T18:27:27.996Z,908.00
2023-01-25T21:50:35.062Z,790.00
2023-01-25T21:54:34.916Z,787.00
2023-01-25T21:55:34.977Z,789.00
2023-01-25T21:56:35.000Z,792.00
2023-01-25T21:57:35.094Z,792.00
2023-01-25T21:58:35.066Z,792.00
2023-01-25T21:59:35.102Z,790.00
2023-01-25T22:00:35.134Z,790.00
2023-01-25T22:01:35.251Z,790.00
2023-01-25T22:02:35.214Z,792.00
2023-01-25T22:03:35.237Z,795.00
2023-01-25T22:04:35.269Z,792.00
2023-01-25T22:05:35.298Z,787.00
2023-01-25T22:06:35.351Z,788.00
2023-01-25T22:07:35.358Z,789.00
2023-01-25T22:08:35.393Z,786.00
2023-01-25T22:09:35.413Z,784.00
2023-01-25T22:10:35.424Z,784.00
2023-01-25T22:11:35.448Z,783.00
2023-01-25T22:12:35.479Z,783.00
2023-01-25T22:13:35.505Z,784.00
2023-01-25T22:14:35.559Z,782.00
2023-01-25T22:15:35.631Z,786.00
2023-01-25T22:16:36.044Z,788.00
2023-01-25T22:17:35.687Z,787.00
2023-01-25T22:18:35.821Z,785.00
2023-01-25T22:19:35.794Z,782.00
2023-01-25T22:20:35.855Z,783.00
2023-01-25T22:21:35.906Z,780.00
2023-01-25T22:22:35.976Z,777.00
2023-01-25T22:23:35.987Z,773.00
2023-01-25T22:24:36.027Z,772.00
2023-01-25T22:25:36.094Z,771.00
2023-01-25T22:26:36.134Z,770.00
2023-01-25T22:27:36.189Z,772.00
2023-01-25T22:28:36.243Z,772.00
2023-01-25T22:29:36.259Z,771.00
2023-01-25T22:30:36.319Z,769.00
2023-01-25T22:31:36.386Z,772.00
2023-01-25T22:32:36.378Z,773.00
2023-01-25T22:33:36.429Z,772.00
2023-01-25T22:34:36.486Z,771.00
2023-01-25T22:35:36.541Z,770.00
2023-01-25T22:36:36.599Z,768.00
2023-01-25T22:37:36.654Z,767.00
2023-01-25T22:38:36.707Z,768.00
2023-01-25T22:39:36.756Z,767.00
2023-01-25T22:40:36.883Z,770.00
2023-01-25T22:41:36.864Z,772.00
2023-01-25T22:42:36.911Z,768.00
2023-01-25T22:43:36.953Z,760.00
2023-01-25T22:44:37.017Z,760.00
2023-01-25T22:45:37.077Z,762.00
2023-01-25T22:46:37.261Z,764.00
2023-01-25T22:47:37.186Z,763.00
2023-01-25T22:48:37.241Z,762.00
2023-01-25T22:49:37.392Z,762.00
2023-01-25T22:50:37.353Z,763.00
2023-01-25T22:51:37.394Z,759.00
2023-01-25T22:52:37.444Z,758.00
2023-01-25T22:53:37.484Z,758.00
2023-01-25T23:11:38.210Z,756.00
2023-01-25T23:12:38.200Z,757.00
2023-01-25T23:13:38.190Z,759.00
2023-01-25T23:14:38.222Z,760.00
